createdAt,value
2023-03-02T00:01:28.490Z,30.25
2023-03-02T00:03:59.675Z,29.85
2023-03-02T00:06:29.620Z,29.05
2023-03-02T00:09:00.639Z,28.75
2023-03-02T00:11:30.254Z,29.20
2023-03-02T00:13:56.995Z,29.80
2023-03-02T00:16:23.844Z,28.13
2023-03-02T00:18:50.452Z,27.30
2023-03-02T00:21:17.286Z,31.67
2023-03-02T00:23:44.939Z,30.73
2023-03-02T00:26:11.718Z,30.38
2023-03-02T00:28:38.283Z,30.80
2023-03-02T00:31:05.675Z,28.65
2023-03-02T00:33:33.555Z,29.48
2023-03-02T00:36:01.006Z,31.02
2023-03-02T00:38:27.748Z,30.13
2023-03-02T00:40:55.551Z,28.42
2023-03-02T00:43:27.296Z,31.52
2023-03-02T00:45:55.407Z,29.95
2023-03-02T00:48:22.909Z,28.85
2023-03-02T00:50:49.595Z,31.23
2023-03-02T00:53:18.015Z,29.98
2023-03-02T00:55:53.694Z,28.85
2023-03-02T00:58:21.365Z,29.05
2023-03-02T01:00:48.281Z,28.38
2023-03-02T01:03:15.051Z,27.90
2023-03-02T01:05:41.673Z,28.27
2023-03-02T01:08:08.452Z,28.98
2023-03-02T01:10:35.064Z,30.40
2023-03-02T01:13:01.712Z,30.23
2023-03-02T01:15:28.295Z,32.13
2023-03-02T01:17:55.050Z,33.13
2023-03-02T01:20:21.617Z,32.00
2023-03-02T01:22:48.487Z,30.98
2023-03-02T01:25:15.100Z,31.85
2023-03-02T01:27:41.692Z,31.35
2023-03-02T01:30:08.984Z,32.28
2023-03-02T01:32:35.684Z,30.60
2023-03-02T01:35:02.319Z,30.85
2023-03-02T01:37:28.942Z,30.33
2023-03-02T01:39:55.506Z,30.10
2023-03-02T01:42:22.092Z,30.13
2023-03-02T01:44:50.904Z,30.60
2023-03-02T01:47:38.960Z,30.48
2023-03-02T01:50:19.310Z,31.98
2023-03-02T01:52:47.130Z,29.27
2023-03-02T01:55:20.164Z,28.98
2023-03-02T01:57:49.928Z,30.25
2023-03-02T02:00:22.387Z,31.10
2023-03-02T02:02:51.470Z,29.25
2023-03-02T02:05:25.541Z,29.08
2023-03-02T02:07:52.380Z,30.02
2023-03-02T02:10:19.751Z,27.40
2023-03-02T02:12:46.328Z,29.02
2023-03-02T02:15:13.028Z,28.40
2023-03-02T02:17:40.443Z,28.80
2023-03-02T02:20:42.827Z,29.05
2023-03-02T02:23:24.326Z,27.50
2023-03-02T02:25:53.639Z,29.50
2023-03-02T02:28:25.252Z,30.08
2023-03-02T02:30:59.452Z,30.20
2023-03-02T02:33:27.337Z,27.70
2023-03-02T02:35:57.675Z,28.58
2023-03-02T02:38:25.618Z,29.15
2023-03-02T02:40:57.221Z,31.67
2023-03-02T02:43:23.831Z,29.20
2023-03-02T02:45:54.352Z,28.92
2023-03-02T02:48:24.309Z,29.60
2023-03-02T02:51:00.437Z,30.70
2023-03-02T02:53:35.890Z,32.13
2023-03-02T02:56:04.507Z,30.65
2023-03-02T02:58:50.402Z,31.00
2023-03-02T03:01:19.532Z,27.83
2023-03-02T03:04:01.125Z,29.17
2023-03-02T03:06:42.673Z,28.73
2023-03-02T03:09:12.492Z,29.58
2023-03-02T03:11:46.474Z,27.92
2023-03-02T03:14:28.098Z,31.30
2023-03-02T03:16:55.134Z,28.67
2023-03-02T03:19:33.079Z,28.75
2023-03-02T03:22:01.448Z,28.80
2023-03-02T03:24:30.830Z,28.60
2023-03-02T03:26:58.449Z,29.17
2023-03-02T03:29:27.903Z,29.92
2023-03-02T03:31:57.025Z,28.83
2023-03-02T03:34:24.464Z,28.67
2023-03-02T03:36:51.691Z,29.13
2023-03-02T03:39:18.765Z,28.38
2023-03-02T03:41:45.342Z,28.77
2023-03-02T03:44:12.864Z,28.52
2023-03-02T03:46:39.716Z,30.23
2023-03-02T03:49:06.514Z,30.15
2023-03-02T03:51:35.524Z,30.13
2023-03-02T03:54:08.335Z,30.13
2023-03-02T03:56:45.034Z,30.15
2023-03-02T03:59:13.999Z,29.52
2023-03-02T04:01:46.900Z,31.50
2023-03-02T04:04:17.784Z,31.52
2023-03-02T04:06:44.556Z,32.05
2023-03-02T04:09:12.329Z,33.40
2023-03-02T04:11:41.266Z,31.67
2023-03-02T04:14:09.186Z,34.50
2023-03-02T04:16:37.073Z,31.88
2023-03-02T04:19:09.507Z,31.58
2023-03-02T04:21:41.105Z,29.92
2023-03-02T04:24:09.345Z,31.80
2023-03-02T04:26:37.217Z,30.85
2023-03-02T04:29:03.917Z,33.05
2023-03-02T04:31:31.341Z,30.58
2023-03-02T04:33:58.705Z,32.67
2023-03-02T04:36:25.627Z,33.55
2023-03-02T04:38:53.021Z,35.47
2023-03-02T04:41:19.740Z,37.72
2023-03-02T04:43:46.317Z,36.28
2023-03-02T04:46:20.041Z,37.58
2023-03-02T04:48:46.685Z,36.13
2023-03-02T04:51:31.418Z,36.80
2023-03-02T04:54:01.214Z,40.25
2023-03-02T04:56:28.733Z,43.95
2023-03-02T04:58:55.758Z,44.60
2023-03-02T05:01:22.601Z,46.58
2023-03-02T05:03:49.359Z,48.83
2023-03-02T05:06:16.926Z,48.25
2023-03-02T05:08:44.574Z,48.38
2023-03-02T05:11:21.876Z,43.85
2023-03-02T05:13:50.621Z,40.72
2023-03-02T05:16:18.026Z,36.72
2023-03-02T05:18:44.628Z,41.50
2023-03-02T05:21:12.100Z,41.95
2023-03-02T05:23:39.945Z,36.20
2023-03-02T05:26:06.642Z,33.33
2023-03-02T05:28:33.520Z,45.80
2023-03-02T05:31:00.445Z,44.83
2023-03-02T05:33:27.073Z,44.33
2023-03-02T05:35:53.750Z,51.28
2023-03-02T05:38:20.665Z,45.60
2023-03-02T05:40:48.180Z,54.53
2023-03-02T05:43:18.717Z,54.63
2023-03-02T05:45:46.120Z,61.75
2023-03-02T05:48:14.083Z,66.80
2023-03-02T05:50:41.570Z,72.15
2023-03-02T05:53:08.190Z,67.75
2023-03-02T05:55:37.167Z,59.55
2023-03-02T05:58:06.785Z,58.78
2023-03-02T06:00:33.568Z,61.80
2023-03-02T06:03:00.244Z,66.32
2023-03-02T06:05:26.911Z,58.00
2023-03-02T06:07:53.879Z,60.35
2023-03-02T06:10:20.804Z,62.17
2023-03-02T06:12:47.371Z,63.00
2023-03-02T06:15:14.073Z,68.10
2023-03-02T06:17:40.681Z,65.22
2023-03-02T06:20:10.543Z,61.17
2023-03-02T06:22:41.381Z,65.07
2023-03-02T06:25:10.439Z,60.05
2023-03-02T06:27:38.763Z,58.17
2023-03-02T06:30:07.216Z,59.10
2023-03-02T06:32:35.319Z,54.22
2023-03-02T06:35:06.047Z,58.83
2023-03-02T06:37:33.447Z,60.58
2023-03-02T06:40:00.543Z,56.67
2023-03-02T06:42:28.213Z,66.72
2023-03-02T06:44:55.214Z,70.50
2023-03-02T06:47:22.836Z,72.18
2023-03-02T06:49:49.409Z,74.68
2023-03-02T06:52:16.436Z,69.10
2023-03-02T06:54:43.046Z,70.07
2023-03-02T06:57:09.779Z,67.15
2023-03-02T06:59:36.546Z,61.95
2023-03-02T07:02:03.360Z,58.33
2023-03-02T07:04:32.356Z,57.88
2023-03-02T07:06:59.000Z,55.28
2023-03-02T07:09:25.657Z,52.70
2023-03-02T07:11:52.254Z,52.83
2023-03-02T07:14:18.792Z,53.25
2023-03-02T07:16:45.369Z,50.17
2023-03-02T07:19:15.201Z,49.63
2023-03-02T07:21:41.841Z,41.80
2023-03-02T07:24:08.588Z,33.28
2023-03-02T07:26:35.168Z,31.95
2023-03-02T07:29:01.908Z,29.15
2023-03-02T07:31:28.804Z,30.98
2023-03-02T07:33:55.516Z,29.52
2023-03-02T07:36:22.152Z,28.88
2023-03-02T07:38:48.844Z,30.85
2023-03-02T07:41:16.900Z,33.50
2023-03-02T07:43:43.944Z,29.65
2023-03-02T07:46:10.704Z,34.17
2023-03-02T07:48:37.498Z,28.42
2023-03-02T07:51:06.805Z,28.50
2023-03-02T07:53:33.557Z,27.85
2023-03-02T07:56:02.308Z,27.80
2023-03-02T07:58:28.997Z,27.33
2023-03-02T08:00:55.909Z,23.20
2023-03-02T08:03:22.569Z,24.27
2023-03-02T08:05:49.188Z,23.48
2023-03-02T08:08:15.821Z,21.65
2023-03-02T08:10:42.373Z,20.90
2023-03-02T08:13:09.002Z,22.30
2023-03-02T08:15:35.602Z,21.27
2023-03-02T08:18:02.170Z,21.60
2023-03-02T08:20:28.781Z,21.50
2023-03-02T08:22:55.335Z,21.23
2023-03-02T08:25:21.942Z,22.42
2023-03-02T08:27:48.613Z,21.30
2023-03-02T08:30:15.413Z,21.35
2023-03-02T08:32:42.033Z,21.10
2023-03-02T08:35:09.188Z,22.15
2023-03-02T08:37:35.828Z,21.90
2023-03-02T08:40:02.391Z,20.27
2023-03-02T08:42:28.934Z,20.65
2023-03-02T08:44:55.497Z,20.55
2023-03-02T08:47:22.062Z,20.52
2023-03-02T08:49:49.897Z,20.50
2023-03-02T08:52:16.476Z,20.42
2023-03-02T08:54:43.093Z,20.13
2023-03-02T08:57:12.950Z,20.95
2023-03-02T08:59:39.886Z,20.75
2023-03-02T09:02:07.456Z,20.25
2023-03-02T09:04:34.135Z,20.50
2023-03-02T09:07:00.747Z,20.95
2023-03-02T09:09:27.312Z,20.42
2023-03-02T09:11:53.894Z,20.17
2023-03-02T09:14:20.578Z,20.35
2023-03-02T09:16:47.415Z,19.95
2023-03-02T09:19:14.493Z,19.48
2023-03-02T09:21:41.149Z,19.98
2023-03-02T09:24:07.990Z,21.23
2023-03-02T09:26:35.009Z,21.33
2023-03-02T09:29:01.973Z,21.77
2023-03-02T09:31:30.335Z,24.08
2023-03-02T09:33:57.395Z,23.95
2023-03-02T09:36:26.160Z,25.75
2023-03-02T09:38:53.365Z,23.63
2023-03-02T09:41:19.942Z,25.25
2023-03-02T09:44:00.103Z,26.60
2023-03-02T09:47:00.170Z,25.50
2023-03-02T09:50:04.153Z,24.42
2023-03-02T09:52:32.439Z,26.08
2023-03-02T09:55:14.676Z,25.10
2023-03-02T09:57:42.081Z,26.92
2023-03-02T10:00:19.924Z,25.25
2023-03-02T10:02:56.212Z,26.58
2023-03-02T10:05:33.199Z,28.33
2023-03-02T10:08:00.361Z,28.95
2023-03-02T10:10:45.226Z,29.52
2023-03-02T10:13:30.697Z,29.83
2023-03-02T10:16:12.241Z,28.05
2023-03-02T10:18:45.759Z,29.67
2023-03-02T10:21:50.891Z,28.88
2023-03-02T10:24:38.816Z,29.13
2023-03-02T10:27:24.583Z,28.85
2023-03-02T10:29:59.894Z,28.67
2023-03-02T10:32:33.035Z,28.17
2023-03-02T10:35:02.402Z,25.83
2023-03-02T10:37:30.735Z,24.92
2023-03-02T10:39:57.515Z,24.30
2023-03-02T10:42:32.319Z,23.60
2023-03-02T10:45:32.918Z,23.40
2023-03-02T10:48:10.970Z,23.27
2023-03-02T10:50:38.165Z,22.55
2023-03-02T10:53:08.700Z,24.08
2023-03-02T10:55:35.453Z,22.73
2023-03-02T10:58:06.777Z,20.70
2023-03-02T11:00:35.337Z,18.73
2023-03-02T11:03:06.068Z,18.95
2023-03-02T11:05:40.051Z,19.05
2023-03-02T11:08:10.659Z,16.67
2023-03-02T11:10:39.507Z,17.73
2023-03-02T11:13:18.817Z,16.10
2023-03-02T11:15:52.079Z,15.68
2023-03-02T11:18:41.983Z,13.77
2023-03-02T11:21:16.234Z,14.02
2023-03-02T11:23:52.386Z,14.95
2023-03-02T11:26:28.800Z,12.60
2023-03-02T11:29:11.675Z,12.98
2023-03-02T11:31:47.077Z,14.07
2023-03-02T11:34:44.536Z,14.75
2023-03-02T11:37:27.929Z,14.38
2023-03-02T11:39:57.474Z,13.40
2023-03-02T11:42:31.560Z,13.63
2023-03-02T11:45:03.280Z,13.05
2023-03-02T11:47:32.914Z,13.55
2023-03-02T11:50:05.391Z,12.70
2023-03-02T11:52:37.722Z,12.77
2023-03-02T11:55:13.113Z,12.82
2023-03-02T11:57:48.652Z,12.10
2023-03-02T12:00:30.859Z,11.55
2023-03-02T12:03:01.900Z,11.57
2023-03-02T12:05:31.453Z,11.23
2023-03-02T12:08:17.676Z,10.73
2023-03-02T12:10:57.571Z,11.27
2023-03-02T12:13:43.314Z,10.98
2023-03-02T12:16:22.028Z,10.90
2023-03-02T12:18:50.765Z,10.48
2023-03-02T12:21:21.186Z,10.60
2023-03-02T12:23:47.688Z,10.80
2023-03-02T12:26:20.423Z,10.40
2023-03-02T12:29:03.765Z,11.20
2023-03-02T12:31:51.678Z,10.45
2023-03-02T12:34:24.460Z,10.90
2023-03-02T12:36:57.999Z,11.23
2023-03-02T12:42:39.773Z,11.15
2023-03-02T12:45:36.507Z,10.75
2023-03-02T12:48:19.337Z,11.00
2023-03-02T12:50:48.166Z,10.43
2023-03-02T12:53:19.492Z,10.75
2023-03-02T12:55:46.682Z,10.30
2023-03-02T12:58:23.662Z,10.35
2023-03-02T13:01:00.197Z,10.27
2023-03-02T13:03:30.328Z,11.35
2023-03-02T13:06:04.575Z,10.27
2023-03-02T13:08:32.320Z,10.10
2023-03-02T13:11:01.899Z,10.18
2023-03-02T13:13:39.848Z,10.88
2023-03-02T13:16:28.312Z,10.82
2023-03-02T13:18:58.084Z,10.90
2023-03-02T13:21:31.412Z,10.45
2023-03-02T13:23:58.238Z,9.95
2023-03-02T13:26:35.994Z,10.57
2023-03-02T13:29:06.181Z,10.18
2023-03-02T13:31:35.177Z,10.38
2023-03-02T13:34:01.961Z,10.38
2023-03-02T13:36:35.388Z,11.00
2023-03-02T13:39:06.994Z,10.10
2023-03-02T13:41:36.613Z,11.20
2023-03-02T13:44:19.916Z,10.50
2023-03-02T13:46:47.134Z,11.02
2023-03-02T13:49:13.743Z,11.50
2023-03-02T13:51:43.515Z,10.65
2023-03-02T13:54:22.899Z,10.45
2023-03-02T13:56:51.248Z,10.40
2023-03-02T13:59:19.936Z,10.52
2023-03-02T14:01:46.889Z,11.32
2023-03-02T14:04:17.640Z,11.50
2023-03-02T14:06:45.765Z,11.77
2023-03-02T14:09:13.205Z,10.90
2023-03-02T14:11:45.825Z,10.85
2023-03-02T14:14:16.422Z,11.23
2023-03-02T14:16:43.159Z,11.15
2023-03-02T14:19:16.305Z,10.90
2023-03-02T14:21:43.488Z,10.77
2023-03-02T14:24:10.560Z,11.45
2023-03-02T14:26:57.934Z,10.43
2023-03-02T14:29:33.451Z,10.98
2023-03-02T14:32:06.679Z,10.43
2023-03-02T14:34:36.103Z,10.13
2023-03-02T14:37:06.461Z,9.93
2023-03-02T14:39:38.231Z,9.98
2023-03-02T14:42:06.356Z,9.10
2023-03-02T14:44:33.040Z,10.13
2023-03-02T14:46:59.661Z,10.90
2023-03-02T14:49:26.251Z,10.55
2023-03-02T14:52:08.669Z,10.02
2023-03-02T14:54:41.455Z,10.32
2023-03-02T14:57:22.085Z,10.03
2023-03-02T14:59:49.355Z,11.63
2023-03-02T15:02:25.295Z,10.93
2023-03-02T15:04:56.160Z,10.80
2023-03-02T15:07:25.171Z,10.73
2023-03-02T15:09:51.750Z,11.70
2023-03-02T15:12:18.324Z,12.10
2023-03-02T15:14:44.911Z,11.68
2023-03-02T15:17:11.502Z,12.43
2023-03-02T15:19:38.061Z,12.48
2023-03-02T15:22:05.045Z,12.65
2023-03-02T15:24:33.380Z,12.40
2023-03-02T15:27:00.627Z,13.23
2023-03-02T15:29:27.304Z,12.45
2023-03-02T15:31:53.948Z,16.27
2023-03-02T15:34:20.640Z,14.32
2023-03-02T15:36:47.226Z,12.50
2023-03-02T15:39:14.783Z,13.85
2023-03-02T15:41:44.286Z,13.80
2023-03-02T15:44:22.096Z,13.73
2023-03-02T15:46:50.232Z,15.35
2023-03-02T15:49:17.171Z,13.13
2023-03-02T15:51:45.924Z,14.68
2023-03-02T15:54:12.647Z,13.48
2023-03-02T15:56:44.313Z,14.48
2023-03-02T15:59:12.113Z,13.50
2023-03-02T16:01:39.074Z,14.75
2023-03-02T16:04:05.723Z,13.73
2023-03-02T16:06:32.304Z,24.85
2023-03-02T16:08:58.850Z,15.52
2023-03-02T16:11:25.418Z,14.32
2023-03-02T16:13:52.465Z,13.98
2023-03-02T16:16:20.555Z,16.75
2023-03-02T16:18:55.311Z,14.63
2023-03-02T16:21:22.302Z,16.08
2023-03-02T16:23:49.441Z,14.65
2023-03-02T16:26:21.784Z,17.00
2023-03-02T16:28:48.948Z,16.38
2023-03-02T16:31:19.001Z,15.85
2023-03-02T16:33:46.761Z,16.95
2023-03-02T16:36:14.611Z,19.33
2023-03-02T16:38:41.558Z,17.40
2023-03-02T16:41:19.836Z,16.50
2023-03-02T16:43:54.599Z,17.23
2023-03-02T16:46:23.224Z,15.88
2023-03-02T16:48:49.964Z,16.90
2023-03-02T16:51:18.173Z,15.90
2023-03-02T16:53:45.457Z,15.60
2023-03-02T16:56:13.196Z,17.02
2023-03-02T16:58:41.423Z,15.90
2023-03-02T17:01:11.666Z,18.52
2023-03-02T17:03:38.362Z,19.02
2023-03-02T17:06:06.096Z,19.80
2023-03-02T17:08:32.672Z,19.13
2023-03-02T17:10:59.294Z,19.90
2023-03-02T17:13:25.923Z,19.15
2023-03-02T17:15:52.942Z,18.77
2023-03-02T17:18:19.674Z,20.35
2023-03-02T17:20:46.578Z,21.10
2023-03-02T17:23:14.205Z,20.13
2023-03-02T17:25:40.819Z,21.05
2023-03-02T17:28:07.448Z,21.85
2023-03-02T17:30:34.465Z,21.80
2023-03-02T17:33:01.292Z,19.58
2023-03-02T17:35:27.872Z,23.95
2023-03-02T17:37:54.659Z,21.98
2023-03-02T17:40:21.373Z,22.50
2023-03-02T17:42:48.026Z,23.08
2023-03-02T17:45:18.140Z,23.02
2023-03-02T17:47:44.875Z,24.88
2023-03-02T17:50:13.196Z,24.15
2023-03-02T17:52:39.854Z,23.33
2023-03-02T17:55:07.429Z,22.98
2023-03-02T17:57:34.079Z,23.67
2023-03-02T18:00:00.708Z,23.10
2023-03-02T18:02:27.265Z,27.15
2023-03-02T18:04:53.840Z,24.95
2023-03-02T18:07:20.368Z,26.08
2023-03-02T18:09:47.050Z,27.40
2023-03-02T18:12:13.576Z,27.85
2023-03-02T18:14:40.208Z,27.25
2023-03-02T18:17:08.792Z,29.13
2023-03-02T18:19:36.944Z,29.23
2023-03-02T18:22:04.333Z,30.17
2023-03-02T18:24:30.957Z,31.38
2023-03-02T18:26:57.613Z,31.00
2023-03-02T18:29:24.293Z,32.25
2023-03-02T18:31:53.257Z,33.13
2023-03-02T18:34:20.501Z,30.58
2023-03-02T18:36:47.530Z,32.95
2023-03-02T18:39:14.240Z,34.70
2023-03-02T18:41:41.275Z,37.03
2023-03-02T18:44:07.969Z,34.15
2023-03-02T18:46:34.614Z,52.25
2023-03-02T18:49:01.275Z,38.30
2023-03-02T18:51:28.100Z,42.28
2023-03-02T18:53:55.820Z,40.38
2023-03-02T18:56:23.077Z,43.88
2023-03-02T18:58:51.434Z,42.70
2023-03-02T19:01:18.805Z,45.78
2023-03-02T19:03:46.030Z,43.45
2023-03-02T19:06:14.140Z,44.17
2023-03-02T19:08:41.016Z,46.45
2023-03-02T19:11:09.118Z,51.00
2023-03-02T19:13:35.766Z,51.80
2023-03-02T19:16:03.024Z,47.97
2023-03-02T19:18:30.418Z,44.45
2023-03-02T19:20:57.754Z,45.25
2023-03-02T19:23:24.896Z,46.67
2023-03-02T19:25:51.896Z,45.95
2023-03-02T19:28:18.626Z,43.92
2023-03-02T19:30:45.235Z,39.90
2023-03-02T19:33:11.830Z,39.72
2023-03-02T19:35:39.050Z,41.20
2023-03-02T19:38:06.846Z,43.67
2023-03-02T19:40:34.581Z,39.88
2023-03-02T19:43:02.232Z,39.20
2023-03-02T19:45:32.552Z,40.67
2023-03-02T19:48:01.588Z,39.72
2023-03-02T19:50:29.620Z,40.42
2023-03-02T19:52:56.711Z,40.20
2023-03-02T19:55:24.409Z,40.20
2023-03-02T19:57:56.486Z,39.30
2023-03-02T20:00:24.023Z,38.45
2023-03-02T20:02:50.891Z,36.47
2023-03-02T20:05:18.071Z,39.00
2023-03-02T20:07:45.095Z,37.40
2023-03-02T20:10:22.451Z,39.85
2023-03-02T20:12:49.014Z,39.75
2023-03-02T20:15:16.733Z,38.03
2023-03-02T20:17:43.533Z,37.55
2023-03-02T20:20:11.912Z,37.30
2023-03-02T20:22:38.435Z,42.00
2023-03-02T20:25:05.565Z,43.20
2023-03-02T20:27:32.261Z,39.55
2023-03-02T20:29:59.312Z,40.92
2023-03-02T20:32:25.941Z,39.75
2023-03-02T20:34:52.568Z,40.08
2023-03-02T20:37:19.180Z,42.50
2023-03-02T20:39:48.022Z,40.20
2023-03-02T20:42:14.648Z,40.25
2023-03-02T20:44:41.404Z,43.53
2023-03-02T20:47:11.401Z,43.60
2023-03-02T20:49:38.153Z,39.33
2023-03-02T20:52:05.503Z,41.65
2023-03-02T20:54:36.477Z,42.75
2023-03-02T20:57:05.368Z,45.30
2023-03-02T20:59:32.695Z,43.47
2023-03-02T21:01:59.632Z,43.42
2023-03-02T21:04:29.076Z,43.05
2023-03-02T21:06:56.227Z,45.22
2023-03-02T21:09:22.805Z,44.13
2023-03-02T21:11:49.407Z,46.63
2023-03-02T21:14:16.192Z,46.17
2023-03-02T21:16:44.291Z,44.13
2023-03-02T21:19:16.011Z,42.80
2023-03-02T21:21:42.895Z,49.65
2023-03-02T21:24:18.089Z,45.30
2023-03-02T21:26:46.296Z,44.35
2023-03-02T21:29:13.636Z,45.88
2023-03-02T21:31:42.307Z,44.40
2023-03-02T21:34:08.910Z,40.55
2023-03-02T21:36:35.727Z,41.03
2023-03-02T21:39:05.037Z,43.13
2023-03-02T21:41:31.666Z,42.17
2023-03-02T21:43:58.540Z,39.88
2023-03-02T21:46:25.379Z,41.15
2023-03-02T21:48:52.150Z,42.25
2023-03-02T21:51:19.069Z,62.47
2023-03-02T21:53:46.165Z,39.38
2023-03-02T21:56:23.817Z,39.55
2023-03-02T21:58:52.762Z,38.70
2023-03-02T22:01:19.740Z,39.17
2023-03-02T22:03:46.606Z,39.97
2023-03-02T22:06:19.045Z,42.35
2023-03-02T22:08:45.877Z,41.17
2023-03-02T22:11:22.823Z,42.50
2023-03-02T22:13:52.432Z,52.90
2023-03-02T22:16:27.452Z,42.72
2023-03-02T22:19:01.000Z,40.60
2023-03-02T22:21:37.497Z,41.03
2023-03-02T22:24:10.580Z,42.25
2023-03-02T22:26:52.401Z,40.00
2023-03-02T22:29:27.907Z,41.03
2023-03-02T22:31:57.271Z,39.70
2023-03-02T22:34:29.832Z,38.05
2023-03-02T22:37:09.611Z,37.50
2023-03-02T22:39:36.461Z,37.90
2023-03-02T22:42:19.219Z,38.28
2023-03-02T22:45:15.336Z,38.08
2023-03-02T22:47:43.436Z,36.28
2023-03-02T22:50:24.394Z,36.30
2023-03-02T22:52:52.734Z,35.55
2023-03-02T22:55:36.895Z,34.75
2023-03-02T22:58:22.222Z,35.47
2023-03-02T23:00:49.951Z,34.30
2023-03-02T23:03:22.377Z,33.95
2023-03-02T23:05:52.904Z,32.17
2023-03-02T23:08:28.958Z,29.67
2023-03-02T23:10:59.414Z,31.17
2023-03-02T23:13:36.957Z,31.02
2023-03-02T23:16:24.586Z,29.55
2023-03-02T23:18:53.966Z,30.88
2023-03-02T23:21:28.228Z,30.13
2023-03-02T23:23:55.317Z,30.60
2023-03-02T23:26:21.925Z,33.22
2023-03-02T23:28:50.060Z,32.53
2023-03-02T23:31:18.480Z,32.65
2023-03-02T23:33:45.235Z,33.15
2023-03-02T23:36:11.933Z,31.55
2023-03-02T23:38:39.576Z,33.00
2023-03-02T23:41:07.484Z,29.40
2023-03-02T23:43:35.333Z,32.90
2023-03-02T23:46:02.007Z,33.63
2023-03-02T23:48:28.656Z,30.63
2023-03-02T23:50:55.210Z,29.52
2023-03-02T23:53:24.070Z,30.48
2023-03-02T23:55:53.518Z,28.83
2023-03-02T23:58:20.437Z,27.90
